sensor_id;sensor_type;location;lat;lon;timestamp;P1;durP1;ratioP1;P2;durP2;ratioP2
72575;SDS011;60613;48.658;2.328;2024-02-23T07:02:33;3.60;;;0.60;;
72575;SDS011;60613;48.658;2.328;2024-02-23T07:05:01;3.70;;;0.80;;
72575;SDS011;60613;48.658;2.328;2024-02-23T07:07:29;4.28;;;0.80;;
72575;SDS011;60613;48.658;2.328;2024-02-23T07:09:55;3.15;;;0.65;;
72575;SDS011;60613;48.658;2.328;2024-02-23T07:12:21;2.92;;;0.90;;
72575;SDS011;60613;48.658;2.328;2024-02-23T07:14:47;6.10;;;0.80;;
72575;SDS011;60613;48.658;2.328;2024-02-23T07:17:16;3.25;;;0.60;;
72575;SDS011;60613;48.658;2.328;2024-02-23T07:19:42;4.07;;;0.60;;
72575;SDS011;60613;48.658;2.328;2024-02-23T07:22:07;3.90;;;0.80;;
72575;SDS011;60613;48.658;2.328;2024-02-23T07:24:33;4.65;;;1.05;;
72575;SDS011;60613;48.658;2.328;2024-02-23T07:26:59;6.23;;;0.90;;
72575;SDS011;60613;48.658;2.328;2024-02-23T07:29:24;8.63;;;1.43;;
72575;SDS011;60613;48.658;2.328;2024-02-23T07:31:50;6.73;;;1.43;;
72575;SDS011;60613;48.658;2.328;2024-02-23T07:34:15;8.17;;;1.63;;
72575;SDS011;60613;48.658;2.328;2024-02-23T07:36:41;7.43;;;1.30;;
72575;SDS011;60613;48.658;2.328;2024-02-23T07:39:08;8.33;;;1.20;;
72575;SDS011;60613;48.658;2.328;2024-02-23T07:41:33;6.88;;;1.27;;
72575;SDS011;60613;48.658;2.328;2024-02-23T07:43:59;6.53;;;1.17;;
72575;SDS011;60613;48.658;2.328;2024-02-23T07:46:24;6.57;;;1.65;;
72575;SDS011;60613;48.658;2.328;2024-02-23T07:48:50;6.87;;;1.20;;
72575;SDS011;60613;48.658;2.328;2024-02-23T07:51:16;6.10;;;1.03;;
72575;SDS011;60613;48.658;2.328;2024-02-23T07:53:41;7.65;;;1.40;;
72575;SDS011;60613;48.658;2.328;2024-02-23T07:56:07;5.50;;;0.90;;
72575;SDS011;60613;48.658;2.328;2024-02-23T07:58:33;5.43;;;0.80;;
72575;SDS011;60613;48.658;2.328;2024-02-23T08:00:58;6.87;;;1.13;;
72575;SDS011;60613;48.658;2.328;2024-02-23T08:03:24;9.07;;;1.27;;
72575;SDS011;60613;48.658;2.328;2024-02-23T08:05:51;6.03;;;1.00;;
72575;SDS011;60613;48.658;2.328;2024-02-23T08:08:16;6.33;;;1.27;;
72575;SDS011;60613;48.658;2.328;2024-02-23T08:10:42;6.60;;;1.27;;
72575;SDS011;60613;48.658;2.328;2024-02-23T08:13:08;7.87;;;1.03;;
72575;SDS011;60613;48.658;2.328;2024-02-23T08:15:35;5.30;;;0.90;;
72575;SDS011;60613;48.658;2.328;2024-02-23T08:18:01;5.55;;;0.88;;
72575;SDS011;60613;48.658;2.328;2024-02-23T08:20:27;5.23;;;0.90;;
72575;SDS011;60613;48.658;2.328;2024-02-23T08:22:52;6.38;;;0.90;;
72575;SDS011;60613;48.658;2.328;2024-02-23T08:25:18;3.90;;;0.90;;
72575;SDS011;60613;48.658;2.328;2024-02-23T08:27:43;6.70;;;1.03;;
72575;SDS011;60613;48.658;2.328;2024-02-23T08:30:09;5.50;;;0.98;;
72575;SDS011;60613;48.658;2.328;2024-02-23T08:32:36;5.78;;;0.85;;
72575;SDS011;60613;48.658;2.328;2024-02-23T08:35:01;5.67;;;1.20;;
72575;SDS011;60613;48.658;2.328;2024-02-23T08:37:27;4.85;;;0.95;;
72575;SDS011;60613;48.658;2.328;2024-02-23T08:39:53;5.37;;;1.00;;
72575;SDS011;60613;48.658;2.328;2024-02-23T08:42:19;7.00;;;1.33;;
72575;SDS011;60613;48.658;2.328;2024-02-23T08:44:45;4.60;;;1.00;;
72575;SDS011;60613;48.658;2.328;2024-02-23T08:47:10;3.60;;;0.80;;
72575;SDS011;60613;48.658;2.328;2024-02-23T08:49:36;7.88;;;1.30;;
72575;SDS011;60613;48.658;2.328;2024-02-23T08:52:02;3.67;;;0.90;;
72575;SDS011;60613;48.658;2.328;2024-02-23T08:54:29;4.97;;;1.00;;
72575;SDS011;60613;48.658;2.328;2024-02-23T08:56:54;7.80;;;1.20;;
72575;SDS011;60613;48.658;2.328;2024-02-23T08:59:20;5.73;;;1.10;;
72575;SDS011;60613;48.658;2.328;2024-02-23T09:01:46;4.90;;;0.80;;
72575;SDS011;60613;48.658;2.328;2024-02-23T09:04:12;4.68;;;1.10;;
72575;SDS011;60613;48.658;2.328;2024-02-23T09:06:38;8.10;;;1.20;;
72575;SDS011;60613;48.658;2.328;2024-02-23T09:09:03;5.10;;;0.90;;
72575;SDS011;60613;48.658;2.328;2024-02-23T09:11:29;5.33;;;1.20;;
72575;SDS011;60613;48.658;2.328;2024-02-23T09:13:55;7.78;;;1.40;;
72575;SDS011;60613;48.658;2.328;2024-02-23T09:16:20;8.30;;;1.07;;
72575;SDS011;60613;48.658;2.328;2024-02-23T09:18:49;6.50;;;0.95;;
72575;SDS011;60613;48.658;2.328;2024-02-23T09:21:15;6.07;;;1.00;;
72575;SDS011;60613;48.658;2.328;2024-02-23T09:23:41;4.23;;;1.00;;
72575;SDS011;60613;48.658;2.328;2024-02-23T09:26:09;7.43;;;1.20;;
72575;SDS011;60613;48.658;2.328;2024-02-23T09:28:38;6.07;;;1.20;;
72575;SDS011;60613;48.658;2.328;2024-02-23T09:31:06;7.78;;;1.30;;
72575;SDS011;60613;48.658;2.328;2024-02-23T09:33:32;7.77;;;0.93;;
72575;SDS011;60613;48.658;2.328;2024-02-23T09:35:57;4.18;;;1.17;;
72575;SDS011;60613;48.658;2.328;2024-02-23T09:38:24;6.82;;;1.20;;
72575;SDS011;60613;48.658;2.328;2024-02-23T09:40:50;4.73;;;0.90;;
72575;SDS011;60613;48.658;2.328;2024-02-23T09:43:17;5.07;;;1.00;;
72575;SDS011;60613;48.658;2.328;2024-02-23T09:45:44;7.97;;;1.52;;
72575;SDS011;60613;48.658;2.328;2024-02-23T09:48:11;7.43;;;1.10;;
72575;SDS011;60613;48.658;2.328;2024-02-23T09:50:38;5.13;;;1.25;;
72575;SDS011;60613;48.658;2.328;2024-02-23T09:53:07;9.33;;;1.40;;
72575;SDS011;60613;48.658;2.328;2024-02-23T09:55:36;10.65;;;1.20;;
72575;SDS011;60613;48.658;2.328;2024-02-23T09:58:01;10.65;;;1.50;;
72575;SDS011;60613;48.658;2.328;2024-02-23T10:00:28;11.13;;;1.33;;
72575;SDS011;60613;48.658;2.328;2024-02-23T10:02:55;5.10;;;1.10;;
72575;SDS011;60613;48.658;2.328;2024-02-23T10:05:23;6.03;;;1.20;;
72575;SDS011;60613;48.658;2.328;2024-02-23T10:07:54;4.68;;;0.90;;
72575;SDS011;60613;48.658;2.328;2024-02-23T10:10:35;5.30;;;0.90;;
72575;SDS011;60613;48.658;2.328;2024-02-23T10:13:02;5.80;;;0.95;;
72575;SDS011;60613;48.658;2.328;2024-02-23T10:15:29;5.30;;;1.02;;
72575;SDS011;60613;48.658;2.328;2024-02-23T10:17:56;8.93;;;1.10;;
72575;SDS011;60613;48.658;2.328;2024-02-23T10:20:21;5.67;;;0.97;;
72575;SDS011;60613;48.658;2.328;2024-02-23T10:22:47;4.03;;;0.80;;
72575;SDS011;60613;48.658;2.328;2024-02-23T10:25:13;5.47;;;0.93;;
72575;SDS011;60613;48.658;2.328;2024-02-23T10:27:40;4.23;;;0.90;;
72575;SDS011;60613;48.658;2.328;2024-02-23T10:30:07;5.22;;;0.80;;
72575;SDS011;60613;48.658;2.328;2024-02-23T10:32:36;4.13;;;0.80;;
72575;SDS011;60613;48.658;2.328;2024-02-23T10:35:05;4.88;;;0.80;;
72575;SDS011;60613;48.658;2.328;2024-02-23T10:37:35;4.80;;;0.90;;
72575;SDS011;60613;48.658;2.328;2024-02-23T10:40:01;7.23;;;1.10;;
72575;SDS011;60613;48.658;2.328;2024-02-23T10:42:30;6.20;;;0.90;;
72575;SDS011;60613;48.658;2.328;2024-02-23T10:44:58;4.25;;;0.70;;
72575;SDS011;60613;48.658;2.328;2024-02-23T10:47:26;4.50;;;0.70;;
72575;SDS011;60613;48.658;2.328;2024-02-23T10:49:53;3.33;;;0.70;;
72575;SDS011;60613;48.658;2.328;2024-02-23T10:52:19;2.30;;;0.60;;
72575;SDS011;60613;48.658;2.328;2024-02-23T10:54:47;3.97;;;0.68;;
72575;SDS011;60613;48.658;2.328;2024-02-23T10:57:14;2.83;;;0.63;;
72575;SDS011;60613;48.658;2.328;2024-02-23T10:59:42;4.30;;;0.80;;
72575;SDS011;60613;48.658;2.328;2024-02-23T11:02:10;3.13;;;0.90;;
72575;SDS011;60613;48.658;2.328;2024-02-23T11:04:37;5.68;;;1.00;;
72575;SDS011;60613;48.658;2.328;2024-02-23T11:07:03;3.53;;;0.68;;
72575;SDS011;60613;48.658;2.328;2024-02-23T11:09:37;3.50;;;0.60;;
72575;SDS011;60613;48.658;2.328;2024-02-23T11:12:03;3.87;;;0.80;;
72575;SDS011;60613;48.658;2.328;2024-02-23T11:16:59;4.63;;;0.80;;
72575;SDS011;60613;48.658;2.328;2024-02-23T11:19:32;4.37;;;0.70;;
72575;SDS011;60613;48.658;2.328;2024-02-23T11:21:59;3.83;;;0.90;;
72575;SDS011;60613;48.658;2.328;2024-02-23T11:24:25;4.85;;;0.80;;
72575;SDS011;60613;48.658;2.328;2024-02-23T11:27:00;5.78;;;0.63;;
72575;SDS011;60613;48.658;2.328;2024-02-23T11:29:33;2.83;;;0.60;;
72575;SDS011;60613;48.658;2.328;2024-02-23T11:32:00;11.03;;;1.00;;
72575;SDS011;60613;48.658;2.328;2024-02-23T11:34:29;4.70;;;0.88;;
72575;SDS011;60613;48.658;2.328;2024-02-23T11:36:55;3.45;;;0.77;;
72575;SDS011;60613;48.658;2.328;2024-02-23T11:39:23;3.78;;;0.70;;
72575;SDS011;60613;48.658;2.328;2024-02-23T11:41:49;4.37;;;0.87;;
72575;SDS011;60613;48.658;2.328;2024-02-23T11:44:15;2.88;;;0.60;;
72575;SDS011;60613;48.658;2.328;2024-02-23T11:46:44;2.67;;;0.60;;
72575;SDS011;60613;48.658;2.328;2024-02-23T11:49:10;2.70;;;0.60;;
72575;SDS011;60613;48.658;2.328;2024-02-23T11:51:36;4.70;;;0.80;;
72575;SDS011;60613;48.658;2.328;2024-02-23T11:54:01;4.47;;;0.75;;
72575;SDS011;60613;48.658;2.328;2024-02-23T11:56:28;3.42;;;0.70;;
72575;SDS011;60613;48.658;2.328;2024-02-23T11:58:55;4.68;;;0.75;;
72575;SDS011;60613;48.658;2.328;2024-02-23T12:01:21;2.83;;;0.60;;
72575;SDS011;60613;48.658;2.328;2024-02-23T12:03:46;3.25;;;0.80;;
72575;SDS011;60613;48.658;2.328;2024-02-23T12:06:13;3.30;;;0.70;;
72575;SDS011;60613;48.658;2.328;2024-02-23T12:08:42;3.17;;;0.80;;
72575;SDS011;60613;48.658;2.328;2024-02-23T12:11:10;3.05;;;0.60;;
72575;SDS011;60613;48.658;2.328;2024-02-23T12:13:39;3.27;;;0.60;;
72575;SDS011;60613;48.658;2.328;2024-02-23T12:16:07;3.00;;;0.60;;
72575;SDS011;60613;48.658;2.328;2024-02-23T12:18:33;2.30;;;0.57;;
72575;SDS011;60613;48.658;2.328;2024-02-23T12:21:03;3.33;;;0.70;;
72575;SDS011;60613;48.658;2.328;2024-02-23T12:23:40;2.90;;;0.80;;
72575;SDS011;60613;48.658;2.328;2024-02-23T12:26:07;4.70;;;0.80;;
72575;SDS011;60613;48.658;2.328;2024-02-23T12:28:33;2.60;;;0.80;;
72575;SDS011;60613;48.658;2.328;2024-02-23T12:31:02;3.88;;;0.80;;
72575;SDS011;60613;48.658;2.328;2024-02-23T12:33:29;5.28;;;0.80;;
72575;SDS011;60613;48.658;2.328;2024-02-23T12:36:03;2.63;;;0.67;;
72575;SDS011;60613;48.658;2.328;2024-02-23T12:38:29;2.15;;;0.65;;
72575;SDS011;60613;48.658;2.328;2024-02-23T12:40:55;3.95;;;0.88;;
72575;SDS011;60613;48.658;2.328;2024-02-23T12:43:21;2.53;;;0.60;;
72575;SDS011;60613;48.658;2.328;2024-02-23T12:45:49;3.13;;;0.57;;
72575;SDS011;60613;48.658;2.328;2024-02-23T12:48:19;3.95;;;0.70;;
72575;SDS011;60613;48.658;2.328;2024-02-23T12:50:45;3.75;;;0.70;;
72575;SDS011;60613;48.658;2.328;2024-02-23T12:53:30;2.45;;;0.57;;
72575;SDS011;60613;48.658;2.328;2024-02-23T12:55:57;2.78;;;0.73;;
72575;SDS011;60613;48.658;2.328;2024-02-23T12:58:23;3.77;;;0.70;;
72575;SDS011;60613;48.658;2.328;2024-02-23T13:00:49;2.60;;;0.68;;
72575;SDS011;60613;48.658;2.328;2024-02-23T13:03:15;2.90;;;0.70;;
72575;SDS011;60613;48.658;2.328;2024-02-23T13:05:40;3.47;;;0.65;;
72575;SDS011;60613;48.658;2.328;2024-02-23T13:08:06;4.03;;;0.87;;
72575;SDS011;60613;48.658;2.328;2024-02-23T13:10:31;3.13;;;0.83;;
72575;SDS011;60613;48.658;2.328;2024-02-23T13:12:57;3.08;;;0.70;;
72575;SDS011;60613;48.658;2.328;2024-02-23T13:15:22;2.33;;;0.57;;
72575;SDS011;60613;48.658;2.328;2024-02-23T13:17:48;2.28;;;0.75;;
72575;SDS011;60613;48.658;2.328;2024-02-23T13:20:14;2.30;;;0.50;;
72575;SDS011;60613;48.658;2.328;2024-02-23T13:22:39;3.60;;;0.80;;
72575;SDS011;60613;48.658;2.328;2024-02-23T13:25:05;3.05;;;0.60;;
72575;SDS011;60613;48.658;2.328;2024-02-23T13:27:31;4.80;;;0.90;;
72575;SDS011;60613;48.658;2.328;2024-02-23T13:29:56;2.30;;;0.60;;
72575;SDS011;60613;48.658;2.328;2024-02-23T13:32:22;3.00;;;0.57;;
72575;SDS011;60613;48.658;2.328;2024-02-23T13:34:47;2.05;;;0.60;;
72575;SDS011;60613;48.658;2.328;2024-02-23T13:37:17;2.08;;;0.50;;
72575;SDS011;60613;48.658;2.328;2024-02-23T13:39:43;3.07;;;0.70;;
72575;SDS011;60613;48.658;2.328;2024-02-23T13:42:08;2.50;;;0.60;;
72575;SDS011;60613;48.658;2.328;2024-02-23T13:44:35;3.30;;;0.60;;
72575;SDS011;60613;48.658;2.328;2024-02-23T13:47:01;3.47;;;0.70;;
72575;SDS011;60613;48.658;2.328;2024-02-23T13:49:27;2.88;;;0.50;;
72575;SDS011;60613;48.658;2.328;2024-02-23T13:51:52;2.08;;;0.55;;
72575;SDS011;60613;48.658;2.328;2024-02-23T13:54:18;2.77;;;0.60;;
72575;SDS011;60613;48.658;2.328;2024-02-23T13:56:44;3.60;;;0.77;;
72575;SDS011;60613;48.658;2.328;2024-02-23T13:59:09;3.90;;;0.70;;
72575;SDS011;60613;48.658;2.328;2024-02-23T14:01:35;1.93;;;0.60;;
72575;SDS011;60613;48.658;2.328;2024-02-23T14:04:05;1.95;;;0.50;;
72575;SDS011;60613;48.658;2.328;2024-02-23T14:06:31;3.20;;;0.70;;
72575;SDS011;60613;48.658;2.328;2024-02-23T14:08:58;2.90;;;0.60;;
72575;SDS011;60613;48.658;2.328;2024-02-23T14:11:23;2.00;;;0.50;;
72575;SDS011;60613;48.658;2.328;2024-02-23T14:13:49;2.27;;;0.57;;
72575;SDS011;60613;48.658;2.328;2024-02-23T14:16:14;4.63;;;0.82;;
72575;SDS011;60613;48.658;2.328;2024-02-23T14:18:41;9.27;;;1.92;;
72575;SDS011;60613;48.658;2.328;2024-02-23T14:21:09;9.38;;;2.97;;
72575;SDS011;60613;48.658;2.328;2024-02-23T14:23:35;9.07;;;2.80;;
72575;SDS011;60613;48.658;2.328;2024-02-23T14:26:01;8.73;;;3.15;;
72575;SDS011;60613;48.658;2.328;2024-02-23T14:28:28;8.13;;;3.53;;
72575;SDS011;60613;48.658;2.328;2024-02-23T14:30:53;9.13;;;3.90;;
72575;SDS011;60613;48.658;2.328;2024-02-23T14:33:19;9.68;;;3.50;;
72575;SDS011;60613;48.658;2.328;2024-02-23T14:35:45;10.65;;;4.97;;
72575;SDS011;60613;48.658;2.328;2024-02-23T14:38:11;8.17;;;3.30;;
72575;SDS011;60613;48.658;2.328;2024-02-23T14:40:37;10.10;;;4.20;;
72575;SDS011;60613;48.658;2.328;2024-02-23T14:43:02;10.43;;;4.00;;
72575;SDS011;60613;48.658;2.328;2024-02-23T14:45:29;7.72;;;3.45;;
72575;SDS011;60613;48.658;2.328;2024-02-23T14:47:55;8.07;;;3.00;;
72575;SDS011;60613;48.658;2.328;2024-02-23T14:50:20;7.32;;;2.92;;
72575;SDS011;60613;48.658;2.328;2024-02-23T14:52:46;8.33;;;3.00;;
72575;SDS011;60613;48.658;2.328;2024-02-23T14:55:12;10.38;;;2.78;;
72575;SDS011;60613;48.658;2.328;2024-02-23T14:57:38;7.75;;;2.38;;
72575;SDS011;60613;48.658;2.328;2024-02-23T15:00:04;7.87;;;2.30;;
72575;SDS011;60613;48.658;2.328;2024-02-23T15:02:30;7.72;;;2.30;;
72575;SDS011;60613;48.658;2.328;2024-02-23T15:04:56;6.70;;;2.30;;
72575;SDS011;60613;48.658;2.328;2024-02-23T15:07:21;6.83;;;1.90;;
72575;SDS011;60613;48.658;2.328;2024-02-23T15:09:47;6.00;;;1.80;;
72575;SDS011;60613;48.658;2.328;2024-02-23T15:12:12;4.20;;;1.57;;
72575;SDS011;60613;48.658;2.328;2024-02-23T15:14:38;5.65;;;1.90;;
72575;SDS011;60613;48.658;2.328;2024-02-23T15:17:04;4.40;;;1.70;;
72575;SDS011;60613;48.658;2.328;2024-02-23T15:19:30;4.47;;;1.50;;
72575;SDS011;60613;48.658;2.328;2024-02-23T15:21:56;5.32;;;1.40;;
72575;SDS011;60613;48.658;2.328;2024-02-23T15:24:22;4.60;;;1.30;;
72575;SDS011;60613;48.658;2.328;2024-02-23T15:26:49;2.80;;;1.13;;
72575;SDS011;60613;48.658;2.328;2024-02-23T15:29:15;4.03;;;1.38;;
72575;SDS011;60613;48.658;2.328;2024-02-23T15:31:41;4.55;;;1.30;;
72575;SDS011;60613;48.658;2.328;2024-02-23T15:34:07;3.97;;;1.20;;
72575;SDS011;60613;48.658;2.328;2024-02-23T15:36:33;2.90;;;1.10;;
72575;SDS011;60613;48.658;2.328;2024-02-23T15:38:59;2.95;;;1.00;;
72575;SDS011;60613;48.658;2.328;2024-02-23T15:41:30;4.07;;;1.20;;
72575;SDS011;60613;48.658;2.328;2024-02-23T15:43:59;5.50;;;1.13;;
72575;SDS011;60613;48.658;2.328;2024-02-23T15:46:27;4.15;;;1.10;;
72575;SDS011;60613;48.658;2.328;2024-02-23T15:48:54;2.60;;;0.98;;
72575;SDS011;60613;48.658;2.328;2024-02-23T15:51:20;3.30;;;1.10;;
72575;SDS011;60613;48.658;2.328;2024-02-23T15:53:46;3.80;;;1.00;;
72575;SDS011;60613;48.658;2.328;2024-02-23T15:56:12;3.53;;;0.88;;
72575;SDS011;60613;48.658;2.328;2024-02-23T15:58:37;4.05;;;0.90;;
72575;SDS011;60613;48.658;2.328;2024-02-23T16:01:03;3.07;;;1.03;;
72575;SDS011;60613;48.658;2.328;2024-02-23T16:03:29;4.75;;;1.02;;
72575;SDS011;60613;48.658;2.328;2024-02-23T16:05:55;3.47;;;1.00;;
72575;SDS011;60613;48.658;2.328;2024-02-23T16:08:37;3.33;;;1.00;;
72575;SDS011;60613;48.658;2.328;2024-02-23T16:11:11;1.92;;;0.80;;
72575;SDS011;60613;48.658;2.328;2024-02-23T16:13:38;2.42;;;0.77;;
72575;SDS011;60613;48.658;2.328;2024-02-23T16:16:07;2.67;;;0.80;;
72575;SDS011;60613;48.658;2.328;2024-02-23T16:18:34;3.03;;;0.90;;
72575;SDS011;60613;48.658;2.328;2024-02-23T16:21:00;3.50;;;1.05;;
72575;SDS011;60613;48.658;2.328;2024-02-23T16:23:27;3.17;;;0.80;;
72575;SDS011;60613;48.658;2.328;2024-02-23T16:25:53;3.43;;;0.83;;
72575;SDS011;60613;48.658;2.328;2024-02-23T16:28:19;3.13;;;0.80;;
72575;SDS011;60613;48.658;2.328;2024-02-23T16:30:45;1.25;;;0.68;;
72575;SDS011;60613;48.658;2.328;2024-02-23T16:33:10;2.80;;;0.90;;
72575;SDS011;60613;48.658;2.328;2024-02-23T16:35:36;2.90;;;0.82;;
72575;SDS011;60613;48.658;2.328;2024-02-23T16:38:02;2.58;;;0.73;;
72575;SDS011;60613;48.658;2.328;2024-02-23T16:40:28;2.70;;;0.80;;
72575;SDS011;60613;48.658;2.328;2024-02-23T16:42:56;1.92;;;0.65;;
72575;SDS011;60613;48.658;2.328;2024-02-23T16:45:23;2.17;;;0.70;;
72575;SDS011;60613;48.658;2.328;2024-02-23T16:47:49;2.60;;;0.80;;
72575;SDS011;60613;48.658;2.328;2024-02-23T16:50:15;1.95;;;0.70;;
72575;SDS011;60613;48.658;2.328;2024-02-23T16:52:40;4.20;;;0.85;;
72575;SDS011;60613;48.658;2.328;2024-02-23T16:55:06;1.83;;;0.70;;
72575;SDS011;60613;48.658;2.328;2024-02-23T16:57:33;2.45;;;0.70;;
72575;SDS011;60613;48.658;2.328;2024-02-23T16:59:58;3.08;;;0.80;;
72575;SDS011;60613;48.658;2.328;2024-02-23T17:02:24;1.50;;;0.67;;
72575;SDS011;60613;48.658;2.328;2024-02-23T17:04:49;1.93;;;0.60;;
72575;SDS011;60613;48.658;2.328;2024-02-23T17:07:15;2.10;;;0.70;;
72575;SDS011;60613;48.658;2.328;2024-02-23T17:09:41;1.23;;;0.60;;
72575;SDS011;60613;48.658;2.328;2024-02-23T17:12:11;2.85;;;0.60;;
72575;SDS011;60613;48.658;2.328;2024-02-23T17:14:43;1.92;;;0.70;;
72575;SDS011;60613;48.658;2.328;2024-02-23T17:17:09;2.47;;;0.70;;
72575;SDS011;60613;48.658;2.328;2024-02-23T17:19:35;2.23;;;0.73;;
72575;SDS011;60613;48.658;2.328;2024-02-23T17:22:01;1.85;;;0.70;;
72575;SDS011;60613;48.658;2.328;2024-02-23T17:24:26;2.47;;;0.80;;
72575;SDS011;60613;48.658;2.328;2024-02-23T17:26:52;2.08;;;0.80;;
72575;SDS011;60613;48.658;2.328;2024-02-23T17:29:18;1.33;;;0.70;;
72575;SDS011;60613;48.658;2.328;2024-02-23T17:31:43;1.77;;;0.70;;
72575;SDS011;60613;48.658;2.328;2024-02-23T17:34:09;3.17;;;0.70;;
72575;SDS011;60613;48.658;2.328;2024-02-23T17:36:36;2.33;;;0.73;;
72575;SDS011;60613;48.658;2.328;2024-02-23T17:39:07;1.45;;;0.65;;
72575;SDS011;60613;48.658;2.328;2024-02-23T17:41:33;2.33;;;0.80;;
72575;SDS011;60613;48.658;2.328;2024-02-23T17:43:58;2.85;;;0.70;;
72575;SDS011;60613;48.658;2.328;2024-02-23T17:46:24;1.60;;;0.70;;
72575;SDS011;60613;48.658;2.328;2024-02-23T17:48:49;2.67;;;0.80;;
72575;SDS011;60613;48.658;2.328;2024-02-23T17:51:15;2.60;;;0.87;;
72575;SDS011;60613;48.658;2.328;2024-02-23T17:53:40;2.60;;;0.70;;
72575;SDS011;60613;48.658;2.328;2024-02-23T17:56:07;2.53;;;0.90;;
72575;SDS011;60613;48.658;2.328;2024-02-23T17:58:33;2.57;;;0.90;;
72575;SDS011;60613;48.658;2.328;2024-02-23T18:01:00;2.70;;;0.80;;
72575;SDS011;60613;48.658;2.328;2024-02-23T18:03:26;3.83;;;1.00;;
72575;SDS011;60613;48.658;2.328;2024-02-23T18:05:52;2.60;;;0.80;;
72575;SDS011;60613;48.658;2.328;2024-02-23T18:08:18;3.55;;;1.10;;
72575;SDS011;60613;48.658;2.328;2024-02-23T18:10:43;3.73;;;1.30;;
72575;SDS011;60613;48.658;2.328;2024-02-23T18:13:09;5.03;;;1.80;;
72575;SDS011;60613;48.658;2.328;2024-02-23T18:15:35;5.13;;;2.10;;
72575;SDS011;60613;48.658;2.328;2024-02-23T18:18:01;4.93;;;2.10;;
72575;SDS011;60613;48.658;2.328;2024-02-23T18:20:27;6.22;;;2.88;;
72575;SDS011;60613;48.658;2.328;2024-02-23T18:22:52;6.63;;;3.90;;
72575;SDS011;60613;48.658;2.328;2024-02-23T18:25:18;7.63;;;4.90;;
72575;SDS011;60613;48.658;2.328;2024-02-23T18:27:43;10.27;;;6.90;;
72575;SDS011;60613;48.658;2.328;2024-02-23T18:30:09;9.43;;;6.30;;
72575;SDS011;60613;48.658;2.328;2024-02-23T18:32:35;8.85;;;5.32;;
72575;SDS011;60613;48.658;2.328;2024-02-23T18:35:03;9.93;;;6.72;;
72575;SDS011;60613;48.658;2.328;2024-02-23T18:37:29;10.45;;;6.85;;
72575;SDS011;60613;48.658;2.328;2024-02-23T18:39:55;10.83;;;6.70;;
72575;SDS011;60613;48.658;2.328;2024-02-23T18:42:21;10.55;;;7.05;;
72575;SDS011;60613;48.658;2.328;2024-02-23T18:44:46;11.73;;;8.13;;
72575;SDS011;60613;48.658;2.328;2024-02-23T18:47:14;13.20;;;9.05;;
72575;SDS011;60613;48.658;2.328;2024-02-23T18:49:39;11.77;;;7.60;;
72575;SDS011;60613;48.658;2.328;2024-02-23T18:52:05;12.77;;;8.40;;
72575;SDS011;60613;48.658;2.328;2024-02-23T18:54:33;13.60;;;8.60;;
72575;SDS011;60613;48.658;2.328;2024-02-23T18:57:02;16.98;;;10.60;;
72575;SDS011;60613;48.658;2.328;2024-02-23T18:59:27;13.93;;;9.23;;
72575;SDS011;60613;48.658;2.328;2024-02-23T19:01:53;14.20;;;9.10;;
72575;SDS011;60613;48.658;2.328;2024-02-23T19:04:19;13.20;;;8.73;;
72575;SDS011;60613;48.658;2.328;2024-02-23T19:06:45;13.57;;;8.40;;
72575;SDS011;60613;48.658;2.328;2024-02-23T19:09:11;12.07;;;7.88;;
72575;SDS011;60613;48.658;2.328;2024-02-23T19:11:36;14.70;;;10.10;;
72575;SDS011;60613;48.658;2.328;2024-02-23T19:14:02;17.25;;;11.07;;
72575;SDS011;60613;48.658;2.328;2024-02-23T19:16:28;14.93;;;10.10;;
72575;SDS011;60613;48.658;2.328;2024-02-23T19:18:53;14.90;;;9.05;;
72575;SDS011;60613;48.658;2.328;2024-02-23T19:21:19;13.13;;;8.60;;
72575;SDS011;60613;48.658;2.328;2024-02-23T19:23:46;13.23;;;8.20;;
72575;SDS011;60613;48.658;2.328;2024-02-23T19:26:12;11.70;;;7.57;;
72575;SDS011;60613;48.658;2.328;2024-02-23T19:28:38;11.10;;;7.13;;
72575;SDS011;60613;48.658;2.328;2024-02-23T19:31:04;11.20;;;7.20;;
72575;SDS011;60613;48.658;2.328;2024-02-23T19:33:29;14.02;;;7.95;;
72575;SDS011;60613;48.658;2.328;2024-02-23T19:35:55;13.50;;;8.40;;
72575;SDS011;60613;48.658;2.328;2024-02-23T19:38:20;13.47;;;8.10;;
72575;SDS011;60613;48.658;2.328;2024-02-23T19:40:46;12.65;;;7.90;;
72575;SDS011;60613;48.658;2.328;2024-02-23T19:43:12;12.60;;;7.00;;
72575;SDS011;60613;48.658;2.328;2024-02-23T19:45:38;11.23;;;7.17;;
72575;SDS011;60613;48.658;2.328;2024-02-23T19:48:03;12.33;;;6.90;;
72575;SDS011;60613;48.658;2.328;2024-02-23T19:50:29;12.02;;;6.97;;
72575;SDS011;60613;48.658;2.328;2024-02-23T19:52:54;12.80;;;6.43;;
72575;SDS011;60613;48.658;2.328;2024-02-23T19:55:20;10.15;;;5.63;;
72575;SDS011;60613;48.658;2.328;2024-02-23T19:57:46;10.33;;;5.60;;
72575;SDS011;60613;48.658;2.328;2024-02-23T20:00:12;10.05;;;5.40;;
72575;SDS011;60613;48.658;2.328;2024-02-23T20:02:38;9.70;;;5.13;;
72575;SDS011;60613;48.658;2.328;2024-02-23T20:05:04;10.33;;;4.80;;
72575;SDS011;60613;48.658;2.328;2024-02-23T20:07:29;9.70;;;4.60;;
72575;SDS011;60613;48.658;2.328;2024-02-23T20:09:55;8.87;;;4.50;;
72575;SDS011;60613;48.658;2.328;2024-02-23T20:12:21;8.65;;;4.47;;
72575;SDS011;60613;48.658;2.328;2024-02-23T20:14:47;9.07;;;3.97;;
72575;SDS011;60613;48.658;2.328;2024-02-23T20:17:14;8.38;;;4.07;;
72575;SDS011;60613;48.658;2.328;2024-02-23T20:19:40;8.52;;;3.90;;
72575;SDS011;60613;48.658;2.328;2024-02-23T20:22:06;8.00;;;3.93;;
72575;SDS011;60613;48.658;2.328;2024-02-23T20:24:32;7.25;;;3.63;;
72575;SDS011;60613;48.658;2.328;2024-02-23T20:26:57;8.13;;;3.80;;
72575;SDS011;60613;48.658;2.328;2024-02-23T20:29:25;8.95;;;3.70;;
72575;SDS011;60613;48.658;2.328;2024-02-23T20:31:51;7.13;;;3.30;;
72575;SDS011;60613;48.658;2.328;2024-02-23T20:34:16;7.20;;;3.45;;
72575;SDS011;60613;48.658;2.328;2024-02-23T20:36:42;8.50;;;3.83;;
72575;SDS011;60613;48.658;2.328;2024-02-23T20:39:09;8.88;;;3.70;;
72575;SDS011;60613;48.658;2.328;2024-02-23T20:41:35;8.00;;;3.53;;
72575;SDS011;60613;48.658;2.328;2024-02-23T20:44:01;9.43;;;4.10;;
72575;SDS011;60613;48.658;2.328;2024-02-23T20:46:26;7.80;;;3.50;;
72575;SDS011;60613;48.658;2.328;2024-02-23T20:48:53;7.80;;;3.47;;
72575;SDS011;60613;48.658;2.328;2024-02-23T20:51:19;8.17;;;3.80;;
72575;SDS011;60613;48.658;2.328;2024-02-23T20:53:45;7.90;;;3.50;;
72575;SDS011;60613;48.658;2.328;2024-02-23T20:56:12;9.63;;;3.67;;
72575;SDS011;60613;48.658;2.328;2024-02-23T20:58:38;8.43;;;3.43;;
72575;SDS011;60613;48.658;2.328;2024-02-23T21:01:04;8.45;;;3.50;;
72575;SDS011;60613;48.658;2.328;2024-02-23T21:03:34;8.20;;;3.40;;
72575;SDS011;60613;48.658;2.328;2024-02-23T21:06:01;8.05;;;3.50;;
72575;SDS011;60613;48.658;2.328;2024-02-23T21:08:28;7.72;;;3.15;;
72575;SDS011;60613;48.658;2.328;2024-02-23T21:10:53;7.70;;;3.20;;
72575;SDS011;60613;48.658;2.328;2024-02-23T21:13:19;8.40;;;3.00;;
72575;SDS011;60613;48.658;2.328;2024-02-23T21:15:44;7.85;;;3.15;;
72575;SDS011;60613;48.658;2.328;2024-02-23T21:18:10;7.03;;;2.70;;
72575;SDS011;60613;48.658;2.328;2024-02-23T21:20:40;8.18;;;3.10;;
72575;SDS011;60613;48.658;2.328;2024-02-23T21:23:08;8.23;;;3.10;;
72575;SDS011;60613;48.658;2.328;2024-02-23T21:25:34;7.55;;;3.00;;
72575;SDS011;60613;48.658;2.328;2024-02-23T21:28:00;7.23;;;3.10;;
72575;SDS011;60613;48.658;2.328;2024-02-23T21:30:25;7.55;;;3.15;;
72575;SDS011;60613;48.658;2.328;2024-02-23T21:32:51;8.70;;;4.30;;
72575;SDS011;60613;48.658;2.328;2024-02-23T21:35:17;7.13;;;2.90;;
72575;SDS011;60613;48.658;2.328;2024-02-23T21:37:43;7.55;;;2.78;;
72575;SDS011;60613;48.658;2.328;2024-02-23T21:40:09;6.93;;;2.90;;
72575;SDS011;60613;48.658;2.328;2024-02-23T21:42:35;7.40;;;3.00;;
72575;SDS011;60613;48.658;2.328;2024-02-23T21:45:01;7.60;;;2.92;;